createdAt,value
2023-03-29T00:00:31.542Z,7.20
2023-03-29T00:02:59.346Z,7.10
2023-03-29T00:05:26.355Z,7.20
2023-03-29T00:07:54.211Z,7.10
2023-03-29T00:10:24.031Z,7.10
2023-03-29T00:12:52.464Z,7.10
2023-03-29T00:15:19.440Z,7.10
2023-03-29T00:17:48.292Z,7.10
2023-03-29T00:20:17.674Z,7.20
2023-03-29T00:22:47.195Z,7.20
2023-03-29T00:25:13.986Z,7.00
2023-03-29T00:27:40.989Z,7.00
2023-03-29T00:30:10.176Z,7.10
2023-03-29T00:32:37.593Z,7.00
2023-03-29T00:35:07.727Z,7.00
2023-03-29T00:37:34.641Z,7.00
2023-03-29T00:40:01.489Z,7.00
2023-03-29T00:42:28.269Z,6.90
2023-03-29T00:45:10.714Z,6.90
2023-03-29T00:47:42.240Z,6.90
2023-03-29T00:50:15.374Z,6.90
2023-03-29T00:52:48.671Z,6.90
2023-03-29T00:55:19.931Z,6.90
2023-03-29T00:57:47.228Z,6.90
2023-03-29T01:00:20.737Z,6.90
2023-03-29T01:02:54.145Z,6.90
2023-03-29T01:05:35.309Z,6.90
2023-03-29T01:08:08.006Z,7.00
2023-03-29T01:10:37.868Z,6.90
2023-03-29T01:13:11.619Z,6.80
2023-03-29T01:15:44.828Z,7.00
2023-03-29T01:18:14.403Z,6.90
2023-03-29T01:20:50.884Z,6.80
2023-03-29T01:23:26.969Z,6.80
2023-03-29T01:25:59.338Z,6.90
2023-03-29T01:28:39.144Z,6.90
2023-03-29T01:31:11.220Z,6.90
2023-03-29T01:33:43.871Z,7.00
2023-03-29T01:36:38.866Z,6.90
2023-03-29T01:39:07.215Z,6.80
2023-03-29T01:41:57.974Z,6.80
2023-03-29T01:44:33.440Z,6.80
2023-03-29T01:47:16.094Z,6.90
2023-03-29T01:50:01.000Z,6.90
2023-03-29T01:52:38.444Z,6.90
2023-03-29T01:55:18.461Z,6.90
2023-03-29T01:57:46.143Z,7.00
2023-03-29T02:00:20.005Z,6.90
2023-03-29T02:02:48.651Z,6.90
2023-03-29T02:05:17.687Z,7.00
2023-03-29T02:07:50.503Z,7.00
2023-03-29T02:10:18.700Z,7.00
2023-03-29T02:12:47.898Z,7.00
2023-03-29T02:15:18.943Z,7.00
2023-03-29T02:17:49.343Z,7.10
2023-03-29T02:20:41.015Z,7.10
2023-03-29T02:23:18.087Z,7.10
2023-03-29T02:25:46.462Z,7.10
2023-03-29T02:28:15.856Z,7.10
2023-03-29T02:31:06.528Z,7.10
2023-03-29T02:33:46.004Z,7.10
2023-03-29T02:36:19.702Z,7.10
2023-03-29T02:38:47.486Z,7.20
2023-03-29T02:41:17.988Z,7.10
2023-03-29T02:43:48.351Z,7.10
2023-03-29T02:46:16.267Z,7.10
2023-03-29T02:48:46.889Z,7.10
2023-03-29T02:51:22.975Z,7.20
2023-03-29T02:53:55.896Z,7.10
2023-03-29T02:56:23.123Z,7.30
2023-03-29T02:58:54.351Z,7.20
2023-03-29T03:01:22.876Z,7.20
2023-03-29T03:03:50.711Z,7.30
2023-03-29T03:06:18.253Z,7.30
2023-03-29T03:08:45.017Z,7.30
2023-03-29T03:11:11.659Z,7.30
2023-03-29T03:13:40.980Z,7.30
2023-03-29T03:16:10.403Z,7.40
2023-03-29T03:18:37.872Z,7.30
2023-03-29T03:21:07.325Z,7.30
2023-03-29T03:23:37.012Z,7.40
2023-03-29T03:26:06.253Z,7.40
2023-03-29T03:28:33.117Z,7.40
2023-03-29T03:31:00.095Z,7.40
2023-03-29T03:33:28.150Z,7.40
2023-03-29T03:36:02.641Z,7.40
2023-03-29T03:38:32.444Z,7.40
2023-03-29T03:41:01.307Z,7.50
2023-03-29T03:43:31.264Z,7.50
2023-03-29T03:46:00.508Z,7.50
2023-03-29T03:48:27.816Z,7.50
2023-03-29T03:51:01.455Z,7.50
2023-03-29T03:53:30.508Z,7.50
2023-03-29T03:55:57.380Z,7.50
2023-03-29T03:58:24.354Z,7.40
2023-03-29T04:00:51.696Z,7.50
2023-03-29T04:03:19.271Z,7.50
2023-03-29T04:05:49.961Z,7.50
2023-03-29T04:08:22.447Z,7.50
2023-03-29T04:10:53.944Z,7.50
2023-03-29T04:13:21.635Z,7.50
2023-03-29T04:15:54.366Z,7.60
2023-03-29T04:18:22.149Z,7.50
2023-03-29T04:20:49.019Z,7.60
2023-03-29T04:23:18.283Z,7.70
2023-03-29T04:25:47.515Z,7.70
2023-03-29T04:28:14.270Z,7.60
2023-03-29T04:30:41.034Z,7.70
2023-03-29T04:33:07.776Z,7.70
2023-03-29T04:35:34.820Z,7.70
2023-03-29T04:38:01.936Z,7.70
2023-03-29T04:40:29.086Z,7.70
2023-03-29T04:42:57.902Z,7.70
2023-03-29T04:45:25.257Z,7.70
2023-03-29T04:47:59.603Z,7.80
2023-03-29T04:50:28.545Z,7.70
2023-03-29T04:53:00.060Z,7.70
2023-03-29T04:55:26.733Z,7.80
2023-03-29T04:57:53.953Z,7.80
2023-03-29T05:00:27.239Z,7.70
2023-03-29T05:02:54.341Z,7.70
2023-03-29T05:05:21.224Z,7.70
2023-03-29T05:07:47.966Z,7.80
2023-03-29T05:10:14.909Z,7.80
2023-03-29T05:12:41.693Z,7.90
2023-03-29T05:15:09.584Z,7.90
2023-03-29T05:17:36.393Z,7.90
2023-03-29T05:20:09.422Z,7.90
2023-03-29T05:22:38.987Z,7.90
2023-03-29T05:25:06.589Z,7.90
2023-03-29T05:27:34.900Z,7.90
2023-03-29T05:30:01.944Z,7.90
2023-03-29T05:32:29.104Z,7.90
2023-03-29T05:34:55.915Z,7.80
2023-03-29T05:37:22.629Z,7.80
2023-03-29T05:39:50.409Z,7.90
2023-03-29T05:42:22.378Z,7.90
2023-03-29T05:44:49.066Z,7.90
2023-03-29T05:47:17.999Z,7.90
2023-03-29T05:49:47.031Z,7.90
2023-03-29T05:52:14.467Z,7.90
2023-03-29T05:54:41.539Z,7.90
2023-03-29T05:57:08.385Z,8.00
2023-03-29T05:59:35.169Z,8.00
2023-03-29T06:02:03.650Z,8.00
2023-03-29T06:04:30.915Z,8.00
2023-03-29T06:06:57.737Z,8.00
2023-03-29T06:09:25.672Z,8.00
2023-03-29T06:11:52.853Z,8.00
2023-03-29T06:14:20.434Z,8.00
2023-03-29T06:16:47.217Z,8.10
2023-03-29T06:19:14.388Z,8.40
2023-03-29T06:21:41.278Z,8.20
2023-03-29T06:24:08.888Z,8.20
2023-03-29T06:26:36.111Z,8.20
2023-03-29T06:29:04.189Z,8.20
2023-03-29T06:31:36.251Z,8.30
2023-03-29T06:34:05.914Z,8.40
2023-03-29T06:36:34.924Z,8.40
2023-03-29T06:39:03.942Z,8.40
2023-03-29T06:41:30.935Z,8.50
2023-03-29T06:43:59.899Z,8.50
2023-03-29T06:46:27.107Z,8.50
2023-03-29T06:48:56.306Z,8.50
2023-03-29T06:51:23.552Z,8.60
2023-03-29T06:53:50.335Z,8.70
2023-03-29T06:56:17.619Z,8.70
2023-03-29T06:58:44.957Z,9.00
2023-03-29T07:01:12.586Z,8.90
2023-03-29T07:03:44.173Z,9.00
2023-03-29T07:06:14.870Z,9.10
2023-03-29T07:08:45.065Z,9.10
2023-03-29T07:11:16.251Z,9.10
2023-03-29T07:13:43.585Z,8.90
2023-03-29T07:16:12.981Z,8.90
2023-03-29T07:18:41.573Z,8.90
2023-03-29T07:21:09.396Z,8.90
2023-03-29T07:23:36.180Z,8.90
2023-03-29T07:26:03.333Z,8.90
2023-03-29T07:28:29.989Z,9.00
2023-03-29T07:31:13.468Z,9.10
2023-03-29T07:33:40.723Z,9.30
2023-03-29T07:36:08.251Z,9.30
2023-03-29T07:38:34.917Z,9.40
2023-03-29T07:41:04.921Z,9.50
2023-03-29T07:43:34.150Z,9.50
2023-03-29T07:46:05.097Z,9.50
2023-03-29T07:48:32.954Z,9.60
2023-03-29T07:51:00.079Z,9.60
2023-03-29T07:53:32.747Z,9.80
2023-03-29T07:55:59.858Z,9.90
2023-03-29T07:58:26.580Z,10.10
2023-03-29T08:00:53.368Z,10.10
2023-03-29T08:03:20.729Z,10.20
2023-03-29T08:05:47.484Z,10.10
2023-03-29T08:08:18.967Z,10.30
2023-03-29T08:10:45.642Z,10.30
2023-03-29T08:13:12.528Z,10.20
2023-03-29T08:15:40.019Z,10.20
2023-03-29T08:18:07.853Z,10.20
2023-03-29T08:20:37.105Z,10.30
2023-03-29T08:23:03.828Z,10.40
2023-03-29T08:25:30.558Z,10.50
2023-03-29T08:27:57.334Z,10.70
2023-03-29T08:30:24.171Z,10.70
2023-03-29T08:32:52.998Z,10.80
2023-03-29T08:35:22.286Z,10.90
2023-03-29T08:37:49.068Z,11.00
2023-03-29T08:40:21.420Z,11.00
2023-03-29T08:43:09.676Z,11.10
2023-03-29T08:45:54.534Z,11.10
2023-03-29T08:48:29.905Z,11.20
2023-03-29T08:51:03.286Z,11.20
2023-03-29T08:53:38.372Z,11.30
2023-03-29T08:56:18.475Z,11.30
2023-03-29T08:58:51.576Z,11.30
2023-03-29T09:01:19.054Z,11.40
2023-03-29T09:03:53.874Z,11.40
2023-03-29T09:06:25.186Z,11.40
2023-03-29T09:08:53.296Z,11.30
2023-03-29T09:11:33.336Z,11.40
2023-03-29T09:14:02.743Z,11.40
2023-03-29T09:16:32.302Z,11.50
2023-03-29T09:19:14.108Z,11.80
2023-03-29T09:21:53.058Z,11.80
2023-03-29T09:24:22.828Z,11.80
2023-03-29T09:26:57.424Z,11.90
2023-03-29T09:29:42.853Z,11.90
2023-03-29T09:32:29.237Z,11.90
2023-03-29T09:35:24.289Z,12.00
2023-03-29T09:37:54.809Z,12.10
2023-03-29T09:40:38.290Z,12.10
2023-03-29T09:43:09.434Z,12.10
2023-03-29T09:45:41.029Z,12.10
2023-03-29T09:48:13.905Z,12.30
2023-03-29T09:50:48.768Z,12.40
2023-03-29T09:53:15.845Z,12.40
2023-03-29T09:55:48.358Z,12.50
2023-03-29T09:58:18.372Z,12.60
2023-03-29T10:00:46.555Z,12.80
2023-03-29T10:03:25.528Z,12.90
2023-03-29T10:05:55.728Z,13.00
2023-03-29T10:08:27.181Z,13.10
2023-03-29T10:10:56.382Z,13.30
2023-03-29T10:13:35.092Z,13.30
2023-03-29T10:16:07.849Z,13.30
2023-03-29T10:18:40.680Z,13.30
2023-03-29T10:21:12.173Z,13.30
2023-03-29T10:23:39.064Z,13.20
2023-03-29T10:26:11.634Z,13.10
2023-03-29T10:28:38.661Z,13.10
2023-03-29T10:31:08.007Z,13.10
2023-03-29T10:33:38.029Z,13.10
2023-03-29T10:36:06.786Z,13.30
2023-03-29T10:38:36.364Z,13.40
2023-03-29T10:41:10.255Z,13.50
2023-03-29T10:43:39.846Z,13.60
2023-03-29T10:46:17.850Z,14.10
2023-03-29T11:04:49.076Z,14.90
2023-03-29T11:07:37.870Z,14.90
2023-03-29T11:10:25.927Z,14.90
2023-03-29T11:13:08.426Z,14.80
2023-03-29T11:15:59.962Z,14.70
2023-03-29T11:18:52.596Z,14.70
2023-03-29T11:21:27.221Z,14.70
2023-03-29T11:24:08.914Z,14.70
2023-03-29T11:26:38.581Z,14.80
2023-03-29T11:29:28.128Z,14.90
2023-03-29T11:32:15.317Z,15.00
2023-03-29T11:35:12.646Z,15.10
2023-03-29T11:37:51.061Z,15.20
2023-03-29T11:40:26.786Z,15.20
2023-03-29T11:42:58.084Z,15.20
2023-03-29T11:45:50.183Z,15.10
2023-03-29T11:48:23.964Z,15.10
2023-03-29T11:50:55.528Z,15.10
2023-03-29T11:53:56.084Z,15.10
2023-03-29T11:56:31.715Z,15.10
2023-03-29T11:59:05.259Z,15.20
2023-03-29T12:01:37.467Z,15.20
2023-03-29T12:04:11.926Z,15.30
2023-03-29T12:07:14.291Z,15.40
2023-03-29T12:09:55.781Z,15.50
2023-03-29T12:12:40.687Z,15.70
2023-03-29T12:15:21.496Z,15.80
2023-03-29T12:18:27.203Z,16.00
2023-03-29T12:20:59.560Z,16.10
2023-03-29T12:23:35.486Z,16.10
2023-03-29T12:26:40.481Z,16.10
2023-03-29T12:29:46.804Z,16.20
2023-03-29T12:32:38.539Z,16.20
2023-03-29T12:35:24.201Z,16.30
2023-03-29T12:38:30.989Z,16.60
2023-03-29T12:41:00.621Z,16.80
2023-03-29T12:43:27.480Z,16.70
2023-03-29T12:46:16.658Z,16.70
2023-03-29T12:48:49.063Z,16.80
2023-03-29T12:51:19.110Z,16.90
2023-03-29T12:53:47.948Z,17.00
2023-03-29T12:56:19.989Z,16.90
2023-03-29T12:58:59.001Z,16.90
2023-03-29T13:01:34.686Z,16.90
2023-03-29T13:04:01.843Z,16.90
2023-03-29T13:07:02.719Z,17.00
2023-03-29T13:09:35.517Z,17.20
2023-03-29T13:12:10.796Z,17.40
2023-03-29T13:14:42.777Z,17.70
2023-03-29T13:17:36.041Z,17.90
2023-03-29T13:20:21.062Z,18.10
2023-03-29T13:23:18.523Z,18.10
2023-03-29T13:28:23.368Z,18.20
2023-03-29T13:36:01.933Z,18.80
2023-03-29T13:38:31.987Z,18.80
2023-03-29T13:41:03.590Z,18.70
2023-03-29T13:43:51.838Z,18.60
2023-03-29T13:46:38.317Z,18.60
2023-03-29T13:49:25.643Z,18.60
2023-03-29T13:52:27.764Z,18.50
2023-03-29T13:55:13.092Z,18.30
2023-03-29T13:58:06.263Z,17.90
2023-03-29T14:00:38.682Z,17.70
2023-03-29T14:03:14.255Z,17.50
2023-03-29T14:05:44.472Z,17.50
2023-03-29T14:08:21.789Z,17.40
2023-03-29T14:10:51.860Z,17.60
2023-03-29T14:13:23.539Z,17.80
2023-03-29T14:16:04.384Z,17.80
2023-03-29T14:18:39.033Z,17.80
2023-03-29T14:21:09.701Z,17.80
2023-03-29T14:23:38.405Z,17.70
2023-03-29T14:26:19.355Z,17.70
2023-03-29T14:28:50.906Z,17.80
2023-03-29T14:31:23.088Z,17.80
2023-03-29T14:33:54.407Z,17.80
2023-03-29T14:36:25.691Z,17.90
2023-03-29T14:39:05.363Z,18.10
2023-03-29T14:41:33.711Z,18.20
2023-03-29T14:44:01.055Z,18.30
2023-03-29T14:46:33.887Z,18.30
2023-03-29T14:49:02.218Z,18.30
2023-03-29T14:51:31.132Z,18.20
2023-03-29T14:54:00.241Z,18.10
2023-03-29T14:56:27.485Z,18.00
2023-03-29T14:58:58.443Z,17.90
2023-03-29T15:01:26.723Z,17.80
2023-03-29T15:04:02.477Z,17.70
2023-03-29T15:06:37.110Z,17.60
2023-03-29T15:09:06.405Z,17.60
2023-03-29T15:11:34.335Z,17.60
2023-03-29T15:14:13.877Z,17.50
2023-03-29T15:16:43.875Z,17.60
2023-03-29T15:19:15.831Z,17.60
2023-03-29T15:21:43.212Z,17.60
2023-03-29T15:24:32.626Z,17.70
2023-03-29T15:27:11.082Z,17.70
2023-03-29T15:29:42.739Z,17.70
2023-03-29T15:32:11.542Z,17.70
2023-03-29T15:34:41.103Z,17.70
2023-03-29T15:37:12.549Z,17.60
2023-03-29T15:39:44.279Z,17.70
2023-03-29T15:42:11.616Z,17.70
2023-03-29T15:44:42.873Z,17.60
2023-03-29T15:47:11.995Z,17.60
2023-03-29T15:49:41.194Z,17.60
2023-03-29T15:52:08.568Z,17.50
2023-03-29T15:54:37.650Z,17.40
2023-03-29T15:57:07.510Z,17.40
2023-03-29T15:59:36.327Z,17.30
2023-03-29T16:02:03.877Z,17.30
2023-03-29T16:04:30.791Z,17.20
2023-03-29T16:07:02.186Z,17.20
2023-03-29T16:09:29.475Z,17.10
2023-03-29T16:12:00.329Z,17.10
2023-03-29T16:14:30.450Z,17.00
2023-03-29T16:16:58.880Z,17.00
2023-03-29T16:19:26.999Z,17.00
2023-03-29T16:21:56.816Z,17.00
2023-03-29T16:24:26.308Z,17.10
2023-03-29T16:26:56.504Z,17.10
2023-03-29T16:29:24.632Z,17.20
2023-03-29T16:31:53.905Z,17.10
2023-03-29T16:34:21.792Z,17.10
2023-03-29T16:36:49.583Z,17.00
2023-03-29T16:39:16.534Z,17.00
2023-03-29T16:41:45.148Z,17.00
2023-03-29T16:44:18.122Z,16.90
2023-03-29T16:46:45.961Z,16.90
2023-03-29T16:49:18.200Z,16.80
2023-03-29T16:51:46.872Z,16.80
2023-03-29T16:54:14.433Z,16.80
2023-03-29T16:56:43.793Z,16.80
2023-03-29T16:59:13.239Z,16.80
2023-03-29T17:01:40.657Z,16.80
2023-03-29T17:04:08.065Z,16.70
2023-03-29T17:06:35.154Z,16.60
2023-03-29T17:09:01.879Z,16.60
2023-03-29T17:11:31.023Z,16.60
2023-03-29T17:14:00.046Z,16.50
2023-03-29T17:16:28.867Z,16.50
2023-03-29T17:18:58.432Z,16.40
2023-03-29T17:21:25.337Z,16.40
2023-03-29T17:23:52.098Z,16.30
2023-03-29T17:26:18.813Z,16.30
2023-03-29T17:28:47.671Z,16.20
2023-03-29T17:31:19.248Z,16.20
2023-03-29T17:33:46.190Z,16.20
2023-03-29T17:36:12.981Z,16.20
2023-03-29T17:38:39.756Z,16.20
2023-03-29T17:41:08.224Z,16.10
2023-03-29T17:43:35.016Z,16.00
2023-03-29T17:46:02.032Z,15.90
2023-03-29T17:48:29.035Z,15.90
2023-03-29T17:50:56.942Z,15.80
2023-03-29T17:53:23.786Z,15.80
2023-03-29T17:55:51.015Z,15.70
2023-03-29T17:58:18.012Z,15.70
2023-03-29T18:00:44.988Z,15.70
2023-03-29T18:03:12.035Z,15.60
2023-03-29T18:05:41.235Z,15.50
2023-03-29T18:08:08.703Z,15.50
2023-03-29T18:10:36.818Z,15.50
2023-03-29T18:13:06.111Z,15.40
2023-03-29T18:15:32.835Z,15.40
2023-03-29T18:17:59.547Z,15.30
2023-03-29T18:20:26.333Z,15.30
2023-03-29T18:22:55.420Z,15.30
2023-03-29T18:25:22.451Z,15.20
2023-03-29T18:27:50.047Z,15.20
2023-03-29T18:30:16.896Z,15.20
2023-03-29T18:32:46.331Z,15.10
2023-03-29T18:35:13.139Z,15.10
2023-03-29T18:37:39.870Z,15.10
2023-03-29T18:40:10.410Z,15.00
2023-03-29T18:42:39.554Z,14.90
2023-03-29T18:45:11.894Z,14.90
2023-03-29T18:47:40.983Z,14.90
2023-03-29T18:50:09.412Z,14.80
2023-03-29T18:52:38.316Z,14.80
2023-03-29T18:55:06.731Z,14.80
2023-03-29T18:57:33.508Z,14.70
2023-03-29T19:00:00.465Z,14.70
2023-03-29T19:02:27.302Z,14.70
2023-03-29T19:04:54.048Z,14.70
2023-03-29T19:07:22.009Z,14.70
2023-03-29T19:09:48.863Z,14.70
2023-03-29T19:12:18.258Z,14.60
2023-03-29T19:14:45.043Z,14.60
2023-03-29T19:17:14.113Z,14.60
2023-03-29T19:19:41.157Z,14.60
2023-03-29T19:22:07.878Z,14.60
2023-03-29T19:24:34.666Z,14.60
2023-03-29T19:27:01.849Z,14.50
2023-03-29T19:29:28.637Z,14.50
2023-03-29T19:31:56.912Z,14.50
2023-03-29T19:34:24.341Z,14.50
2023-03-29T19:36:51.792Z,14.50
2023-03-29T19:39:18.493Z,14.50
2023-03-29T19:41:45.238Z,14.50
2023-03-29T19:44:11.948Z,14.50
2023-03-29T19:46:38.881Z,14.50
2023-03-29T19:49:09.634Z,14.40
2023-03-29T19:51:36.298Z,14.40
2023-03-29T19:54:03.049Z,14.40
2023-03-29T19:56:29.782Z,14.40
2023-03-29T19:58:56.467Z,14.30
2023-03-29T20:01:26.993Z,14.30
2023-03-29T20:03:54.318Z,14.30
2023-03-29T20:06:21.732Z,14.30
2023-03-29T20:08:52.834Z,14.30
2023-03-29T20:11:23.721Z,14.30
2023-03-29T20:13:50.753Z,14.20
2023-03-29T20:16:18.687Z,14.20
2023-03-29T20:18:46.385Z,14.20
2023-03-29T20:21:20.185Z,14.20
2023-03-29T20:23:47.358Z,14.20
2023-03-29T20:26:14.248Z,14.00
2023-03-29T20:28:41.022Z,14.20
2023-03-29T20:31:10.609Z,14.10
2023-03-29T20:33:41.357Z,14.10
2023-03-29T20:36:09.054Z,14.10
2023-03-29T20:38:36.027Z,14.10
2023-03-29T20:41:04.311Z,14.10
2023-03-29T20:43:37.357Z,14.10
2023-03-29T20:46:05.596Z,14.10
2023-03-29T20:48:32.425Z,14.10
2023-03-29T20:51:02.911Z,14.00
2023-03-29T20:53:34.228Z,14.10
2023-03-29T20:56:00.889Z,14.10
2023-03-29T20:58:29.033Z,14.10
2023-03-29T21:00:58.740Z,14.10
2023-03-29T21:03:25.702Z,14.00
2023-03-29T21:05:55.459Z,14.00
2023-03-29T21:08:28.488Z,14.00
2023-03-29T21:10:57.696Z,14.00
2023-03-29T21:13:24.544Z,14.00
2023-03-29T21:15:51.965Z,13.90
2023-03-29T21:18:18.770Z,13.90
2023-03-29T21:20:45.551Z,13.90
2023-03-29T21:23:13.298Z,13.90
2023-03-29T21:25:40.093Z,13.80
2023-03-29T21:28:06.793Z,13.80
2023-03-29T21:30:33.514Z,13.90
2023-03-29T21:33:02.513Z,13.80
2023-03-29T21:35:33.341Z,13.90
2023-03-29T21:38:00.988Z,13.90
2023-03-29T21:40:27.784Z,13.80
2023-03-29T21:42:56.942Z,13.80
2023-03-29T21:45:24.272Z,13.80
2023-03-29T21:47:53.694Z,13.80
2023-03-29T21:50:20.426Z,13.80
2023-03-29T21:52:50.402Z,13.90
2023-03-29T21:55:18.035Z,13.80
2023-03-29T21:57:44.753Z,13.80
2023-03-29T22:00:12.933Z,13.80
2023-03-29T22:02:40.370Z,13.80
2023-03-29T22:05:09.653Z,13.80
2023-03-29T22:07:38.673Z,13.70
2023-03-29T22:10:08.267Z,13.70
2023-03-29T22:12:38.408Z,13.70
2023-03-29T22:15:06.907Z,13.70
2023-03-29T22:17:35.764Z,13.70
2023-03-29T22:20:04.445Z,13.70
2023-03-29T22:22:33.598Z,13.70
2023-03-29T22:25:02.818Z,13.70
2023-03-29T22:27:29.529Z,13.70
2023-03-29T22:29:56.402Z,13.70
2023-03-29T22:32:23.117Z,13.70
2023-03-29T22:34:54.637Z,13.70
2023-03-29T22:37:22.579Z,13.70
2023-03-29T22:39:49.869Z,13.70
2023-03-29T22:42:16.809Z,13.70
2023-03-29T22:44:45.988Z,13.70
2023-03-29T22:47:15.273Z,13.70
2023-03-29T22:49:42.021Z,13.70
2023-03-29T22:52:08.691Z,13.60
2023-03-29T22:54:37.497Z,13.60
2023-03-29T22:57:04.505Z,13.60
2023-03-29T22:59:31.210Z,13.60
2023-03-29T23:01:57.999Z,13.60
2023-03-29T23:04:24.933Z,13.60
2023-03-29T23:06:51.651Z,13.60
2023-03-29T23:09:18.487Z,13.60
2023-03-29T23:11:47.720Z,13.60
2023-03-29T23:14:14.825Z,13.60
2023-03-29T23:16:41.639Z,13.50
2023-03-29T23:19:11.013Z,13.50
2023-03-29T23:21:37.767Z,13.50
2023-03-29T23:24:04.858Z,13.50
2023-03-29T23:26:35.638Z,13.50
2023-03-29T23:29:03.329Z,13.50
2023-03-29T23:31:30.250Z,13.50
2023-03-29T23:33:56.970Z,13.60
2023-03-29T23:36:28.048Z,13.60
2023-03-29T23:38:54.799Z,13.80
2023-03-29T23:41:22.924Z,13.80
2023-03-29T23:43:50.533Z,13.80
2023-03-29T23:46:18.737Z,13.80
2023-03-29T23:48:47.100Z,13.80
2023-03-29T23:51:13.896Z,13.80
2023-03-29T23:53:41.077Z,13.80
2023-03-29T23:56:08.049Z,13.70
2023-03-29T23:58:37.349Z,13.80
